Delhi, Iowa
Current Conditions -  °F | °C
As of 6:15 AM on Thursday 29 Jan 2015 (Local Time) from KMXO Reporting Station
Overcast Overcast  
Wind Chill: -4°   Ceiling: 1300
Heat Index:   Visibility: 9mi
Dew Point:   Wind: 15mph
Humidity: 93%   Direction: 330°NNW
Pressure: 29.91"   Gusts: 23mph
Location:  42.43°N, 91.33°W
Report Text: KMXO 291215Z AUTO 33013G20KT 9SM OVC013 01/M00 A2991 RMK AO2
Loading
Personal Weather Stations






























Interactive Weather Map New forecast layout! Learn more

10-Day Weather Forecast

Advertisements
Track Severe Weather on mobile